CST,Max TemperatureF,Mean TemperatureF,Min TemperatureF,Max Dew PointF,MeanDew PointF,Min DewpointF,Max Humidity, Mean Humidity, Min Humidity, Max Sea Level PressureIn, Mean Sea Level PressureIn, Min Sea Level PressureIn, Max VisibilityMiles, Mean VisibilityMiles, Min VisibilityMiles, Max Wind SpeedMPH, Mean Wind SpeedMPH, Max Gust SpeedMPH,PrecipitationIn, CloudCover, Events, WindDirDegrees
2014-1-1,54,48,42,45,40,29,82,72,55,30.33,30.23,30.10,10,10,8,6,4,,0.14,3,Rain,63
2014-1-2,57,46,32,47,40,17,76,66,51,30.24,29.96,29.87,10,6,1,18,6,33,0.17,5,Rain,32
2014-1-3,42,34,25,16,10,4,63,41,21,30.43,30.35,30.25,10,10,10,14,10,21,0.00,1,,2
2014-1-4,43,34,24,33,21,14,68,54,44,30.38,30.27,30.12,10,10,10,9,6,,0.00,6,,45
2014-1-5,62,52,41,55,47,32,82,69,50,30.12,29.94,29.83,10,7,1,14,6,,0.04,7,Rain,165
2014-1-6,60,41,20,54,26,-4,82,65,25,30.53,30.14,29.86,10,9,4,24,16,38,0.03,5,Rain,311
2014-1-7,29,22,14,6,-2,-6,58,37,24,30.63,30.56,30.50,10,10,10,12,8,,0.00,0,,349
2014-1-8,46,32,17,16,9,5,64,40,18,30.57,30.48,30.40,10,10,10,12,6,,0.00,2,,45
2014-1-9,50,44,39,48,43,18,100,90,39,30.43,30.33,30.27,10,8,2,13,7,,0.04,7,Rain,43
2014-1-10,62,55,48,63,52,48,100,99,94,30.24,30.16,29.98,10,3,0,8,5,,0.14,7,Fog-Rain,54
2014-1-11,70,60,49,68,62,33,100,90,45,30.07,29.90,29.79,10,8,1,20,10,28,0.33,6,Rain-Thunderstorm,204
2014-1-12,64,50,35,39,36,33,96,63,32,30.24,30.17,30.08,10,10,10,7,4,,0.00,0,,226
2014-1-13,60,49,38,57,51,37,100,91,57,30.17,29.98,29.88,10,7,0,10,4,17,0.80,4,Fog-Rain,152
2014-1-14,63,51,38,58,48,29,100,81,28,30.07,29.93,29.84,10,7,0,14,5,20,0.06,2,Fog-Rain,286
2014-1-15,54,44,34,37,29,16,97,61,35,30.13,30.06,30.00,10,10,10,16,5,21,0.00,1,,300
2014-1-16,49,38,26,28,17,8,71,48,20,30.22,30.14,30.09,10,10,10,10,5,,0.00,0,,243
2014-1-17,61,48,35,41,26,11,90,52,25,30.20,30.10,30.02,10,10,10,14,7,24,0.00,0,,256
2014-1-18,51,38,26,27,15,6,69,41,18,30.32,30.21,30.10,10,10,10,13,5,,0.00,0,,246
2014-1-19,60,48,35,45,35,28,93,66,31,30.18,30.12,30.07,10,10,10,14,6,21,0.03,1,Rain,261
2014-1-20,65,48,30,44,35,28,95,69,28,30.13,30.06,29.96,10,10,10,10,3,20,0.00,0,,220
2014-1-21,58,44,30,54,39,16,100,76,28,30.12,29.91,29.86,10,8,0,21,7,32,0.00,4,Fog,272
2014-1-22,45,34,24,21,12,2,68,45,18,30.24,30.18,30.12,10,10,10,10,6,,0.00,0,,304
2014-1-23,48,38,27,23,17,11,78,46,27,30.53,30.38,30.24,10,10,10,12,5,17,0.00,2,,350
2014-1-24,38,32,26,14,2,-4,46,26,17,30.61,30.50,30.31,10,10,10,16,10,20,0.00,6,,18
2014-1-25,57,44,32,42,33,15,100,66,42,30.28,30.11,29.98,10,9,2,18,7,28,0.00,3,,230
2014-1-26,59,46,32,44,35,27,100,72,29,30.09,30.00,29.94,10,9,2,10,3,,0.00,2,,180
2014-1-27,68,56,44,59,53,35,100,90,64,30.07,29.96,29.91,10,9,2,16,6,23,0.11,6,Rain,320
2014-1-28,43,34,24,32,25,10,100,77,35,30.25,30.15,30.06,10,10,6,14,9,17,0.29,7,Rain,344
2014-1-29,24,22,19,21,18,16,89,83,75,30.39,30.33,30.25,10,10,10,13,8,20,0.00,3,,2
2014-1-30,38,28,18,32,25,15,96,85,68,30.35,30.27,30.19,10,10,8,9,5,,0.00,2,,40
2014-1-31,55,40,24,39,30,23,100,89,47,30.25,30.20,30.12,10,5,0,8,6,,0.00,3,Fog,45